Felda, Florida
Current Conditions -  °F | °C
As of 9:15 AM on Thursday 18 Dec 2014 (Local Time) from KIMM Reporting Station
Clear Clear  
Wind Chill: 64°   Ceiling: Unl
Heat Index: 64°   Visibility: 6mi
Dew Point: 55°   Wind: 5mph
Humidity: 73%   Direction: 350°N
Pressure: 30.2"   Gusts: NA
Location:  26.54°N, 81.44°W
Report Text: KIMM 181415Z AUTO 35004KT 6SM CLR 18/13 A3020 RMK A01 P000
Loading
Personal Weather Stations






























Interactive Weather Map New forecast layout! Learn more

10-Day Weather Forecast

Advertisements
Track Severe Weather on mobile